sensor_id;sensor_type;location;lat;lon;timestamp;P1;durP1;ratioP1;P2;durP2;ratioP2
7971;SDS011;4031;49.758;6.120;2022-11-20T00:01:22;6.73;;;5.23;;
7971;SDS011;4031;49.758;6.120;2022-11-20T00:03:50;5.90;;;5.13;;
7971;SDS011;4031;49.758;6.120;2022-11-20T00:06:18;8.00;;;6.00;;
7971;SDS011;4031;49.758;6.120;2022-11-20T00:08:45;8.90;;;6.20;;
7971;SDS011;4031;49.758;6.120;2022-11-20T00:13:43;10.90;;;5.63;;
7971;SDS011;4031;49.758;6.120;2022-11-20T00:16:11;10.10;;;6.17;;
7971;SDS011;4031;49.758;6.120;2022-11-20T00:18:39;8.83;;;6.50;;
7971;SDS011;4031;49.758;6.120;2022-11-20T00:21:05;8.90;;;6.47;;
7971;SDS011;4031;49.758;6.120;2022-11-20T00:23:35;8.80;;;5.60;;
7971;SDS011;4031;49.758;6.120;2022-11-20T00:26:05;9.50;;;6.07;;
7971;SDS011;4031;49.758;6.120;2022-11-20T00:28:34;9.13;;;6.13;;
7971;SDS011;4031;49.758;6.120;2022-11-20T00:33:34;9.23;;;6.77;;
7971;SDS011;4031;49.758;6.120;2022-11-20T00:36:01;9.33;;;6.27;;
7971;SDS011;4031;49.758;6.120;2022-11-20T00:38:28;10.60;;;6.07;;
7971;SDS011;4031;49.758;6.120;2022-11-20T00:40:56;9.20;;;6.00;;
7971;SDS011;4031;49.758;6.120;2022-11-20T00:43:23;7.80;;;5.93;;
7971;SDS011;4031;49.758;6.120;2022-11-20T00:45:50;11.13;;;6.13;;
7971;SDS011;4031;49.758;6.120;2022-11-20T00:48:31;6.97;;;5.20;;
7971;SDS011;4031;49.758;6.120;2022-11-20T00:50:57;6.23;;;5.10;;
7971;SDS011;4031;49.758;6.120;2022-11-20T00:53:23;10.30;;;6.23;;
7971;SDS011;4031;49.758;6.120;2022-11-20T00:55:53;6.47;;;5.40;;
7971;SDS011;4031;49.758;6.120;2022-11-20T00:58:19;8.27;;;5.20;;
7971;SDS011;4031;49.758;6.120;2022-11-20T01:00:45;6.73;;;6.00;;
7971;SDS011;4031;49.758;6.120;2022-11-20T01:03:10;5.57;;;4.73;;
7971;SDS011;4031;49.758;6.120;2022-11-20T01:05:36;7.60;;;5.37;;
7971;SDS011;4031;49.758;6.120;2022-11-20T01:08:02;7.87;;;5.80;;
7971;SDS011;4031;49.758;6.120;2022-11-20T01:10:28;7.33;;;5.87;;
7971;SDS011;4031;49.758;6.120;2022-11-20T01:12:54;10.60;;;6.43;;
7971;SDS011;4031;49.758;6.120;2022-11-20T01:15:40;7.73;;;6.03;;
7971;SDS011;4031;49.758;6.120;2022-11-20T01:18:06;8.63;;;5.77;;
7971;SDS011;4031;49.758;6.120;2022-11-20T01:20:35;10.63;;;6.07;;
7971;SDS011;4031;49.758;6.120;2022-11-20T01:23:01;5.87;;;5.17;;
7971;SDS011;4031;49.758;6.120;2022-11-20T01:25:28;6.10;;;4.73;;
7971;SDS011;4031;49.758;6.120;2022-11-20T01:27:54;8.60;;;6.20;;
7971;SDS011;4031;49.758;6.120;2022-11-20T01:30:20;7.10;;;5.77;;
7971;SDS011;4031;49.758;6.120;2022-11-20T01:32:45;7.20;;;6.03;;
7971;SDS011;4031;49.758;6.120;2022-11-20T01:35:11;7.13;;;5.67;;
7971;SDS011;4031;49.758;6.120;2022-11-20T01:37:37;10.10;;;6.43;;
7971;SDS011;4031;49.758;6.120;2022-11-20T01:40:02;9.40;;;6.13;;
7971;SDS011;4031;49.758;6.120;2022-11-20T01:42:29;11.23;;;6.80;;
7971;SDS011;4031;49.758;6.120;2022-11-20T01:46:15;9.83;;;6.80;;
7971;SDS011;4031;49.758;6.120;2022-11-20T01:48:41;10.60;;;6.60;;
7971;SDS011;4031;49.758;6.120;2022-11-20T01:51:29;7.40;;;6.07;;
7971;SDS011;4031;49.758;6.120;2022-11-20T01:54:14;9.13;;;6.23;;
7971;SDS011;4031;49.758;6.120;2022-11-20T01:56:48;11.47;;;6.70;;
7971;SDS011;4031;49.758;6.120;2022-11-20T01:59:19;7.53;;;5.13;;
7971;SDS011;4031;49.758;6.120;2022-11-20T02:01:48;9.17;;;5.80;;
7971;SDS011;4031;49.758;6.120;2022-11-20T02:04:14;7.90;;;5.30;;
7971;SDS011;4031;49.758;6.120;2022-11-20T02:09:10;7.47;;;4.70;;
7971;SDS011;4031;49.758;6.120;2022-11-20T02:11:36;4.90;;;4.40;;
7971;SDS011;4031;49.758;6.120;2022-11-20T02:14:03;6.43;;;5.27;;
7971;SDS011;4031;49.758;6.120;2022-11-20T02:16:31;7.83;;;5.10;;
7971;SDS011;4031;49.758;6.120;2022-11-20T02:19:04;8.73;;;5.67;;
7971;SDS011;4031;49.758;6.120;2022-11-20T02:21:40;7.37;;;5.87;;
7971;SDS011;4031;49.758;6.120;2022-11-20T02:24:15;9.27;;;5.40;;
7971;SDS011;4031;49.758;6.120;2022-11-20T02:29:29;7.73;;;5.00;;
7971;SDS011;4031;49.758;6.120;2022-11-20T02:32:05;5.30;;;4.57;;
7971;SDS011;4031;49.758;6.120;2022-11-20T02:34:31;5.97;;;4.00;;
7971;SDS011;4031;49.758;6.120;2022-11-20T02:36:57;6.60;;;5.37;;
7971;SDS011;4031;49.758;6.120;2022-11-20T02:39:25;4.50;;;4.10;;
7971;SDS011;4031;49.758;6.120;2022-11-20T02:41:53;6.83;;;4.60;;
7971;SDS011;4031;49.758;6.120;2022-11-20T02:44:21;7.57;;;5.77;;
7971;SDS011;4031;49.758;6.120;2022-11-20T02:46:46;7.17;;;4.63;;
7971;SDS011;4031;49.758;6.120;2022-11-20T02:49:12;6.80;;;4.73;;
7971;SDS011;4031;49.758;6.120;2022-11-20T02:51:38;8.50;;;3.67;;
7971;SDS011;4031;49.758;6.120;2022-11-20T02:54:04;6.17;;;3.90;;
7971;SDS011;4031;49.758;6.120;2022-11-20T02:56:30;8.13;;;4.70;;
7971;SDS011;4031;49.758;6.120;2022-11-20T02:58:55;5.50;;;4.13;;
7971;SDS011;4031;49.758;6.120;2022-11-20T03:01:21;6.60;;;4.47;;
7971;SDS011;4031;49.758;6.120;2022-11-20T03:03:47;6.13;;;4.07;;
7971;SDS011;4031;49.758;6.120;2022-11-20T03:06:14;5.20;;;3.17;;
7971;SDS011;4031;49.758;6.120;2022-11-20T03:08:41;10.07;;;3.83;;
7971;SDS011;4031;49.758;6.120;2022-11-20T03:11:07;4.80;;;4.03;;
7971;SDS011;4031;49.758;6.120;2022-11-20T03:13:34;6.20;;;4.10;;
7971;SDS011;4031;49.758;6.120;2022-11-20T03:16:13;4.33;;;3.70;;
7971;SDS011;4031;49.758;6.120;2022-11-20T03:18:44;4.43;;;3.77;;
7971;SDS011;4031;49.758;6.120;2022-11-20T03:21:11;4.93;;;3.53;;
7971;SDS011;4031;49.758;6.120;2022-11-20T03:23:38;4.67;;;3.63;;
7971;SDS011;4031;49.758;6.120;2022-11-20T03:26:19;6.07;;;4.27;;
7971;SDS011;4031;49.758;6.120;2022-11-20T03:28:48;6.43;;;3.80;;
7971;SDS011;4031;49.758;6.120;2022-11-20T03:31:18;6.40;;;4.37;;
7971;SDS011;4031;49.758;6.120;2022-11-20T03:33:47;5.90;;;4.40;;
7971;SDS011;4031;49.758;6.120;2022-11-20T03:36:14;8.97;;;4.10;;
7971;SDS011;4031;49.758;6.120;2022-11-20T03:38:41;4.53;;;3.70;;
7971;SDS011;4031;49.758;6.120;2022-11-20T03:41:09;5.70;;;4.00;;
7971;SDS011;4031;49.758;6.120;2022-11-20T03:43:40;5.37;;;3.83;;
7971;SDS011;4031;49.758;6.120;2022-11-20T03:46:07;5.93;;;4.17;;
7971;SDS011;4031;49.758;6.120;2022-11-20T03:48:33;7.67;;;3.20;;
7971;SDS011;4031;49.758;6.120;2022-11-20T03:53:45;6.10;;;4.53;;
7971;SDS011;4031;49.758;6.120;2022-11-20T03:56:13;6.13;;;3.80;;
7971;SDS011;4031;49.758;6.120;2022-11-20T03:58:42;5.87;;;3.90;;
7971;SDS011;4031;49.758;6.120;2022-11-20T04:01:13;5.47;;;4.40;;
7971;SDS011;4031;49.758;6.120;2022-11-20T04:03:47;6.23;;;4.70;;
7971;SDS011;4031;49.758;6.120;2022-11-20T04:06:15;7.87;;;6.00;;
7971;SDS011;4031;49.758;6.120;2022-11-20T04:08:46;7.47;;;5.40;;
7971;SDS011;4031;49.758;6.120;2022-11-20T04:11:13;9.00;;;5.47;;
7971;SDS011;4031;49.758;6.120;2022-11-20T04:13:42;8.17;;;5.43;;
7971;SDS011;4031;49.758;6.120;2022-11-20T04:16:12;8.80;;;5.53;;
7971;SDS011;4031;49.758;6.120;2022-11-20T04:18:38;7.90;;;6.20;;
7971;SDS011;4031;49.758;6.120;2022-11-20T04:21:04;6.60;;;5.43;;
7971;SDS011;4031;49.758;6.120;2022-11-20T04:23:31;9.07;;;6.03;;
7971;SDS011;4031;49.758;6.120;2022-11-20T04:26:01;11.80;;;6.43;;
7971;SDS011;4031;49.758;6.120;2022-11-20T04:28:32;9.63;;;6.37;;
7971;SDS011;4031;49.758;6.120;2022-11-20T04:31:06;14.10;;;6.33;;
7971;SDS011;4031;49.758;6.120;2022-11-20T04:33:52;9.80;;;6.20;;
7971;SDS011;4031;49.758;6.120;2022-11-20T04:36:19;7.53;;;5.80;;
7971;SDS011;4031;49.758;6.120;2022-11-20T04:38:54;10.27;;;6.03;;
7971;SDS011;4031;49.758;6.120;2022-11-20T04:41:27;12.23;;;7.77;;
7971;SDS011;4031;49.758;6.120;2022-11-20T04:43:56;11.07;;;6.93;;
7971;SDS011;4031;49.758;6.120;2022-11-20T04:46:27;10.63;;;6.23;;
7971;SDS011;4031;49.758;6.120;2022-11-20T04:48:55;10.53;;;6.20;;
7971;SDS011;4031;49.758;6.120;2022-11-20T04:51:21;12.30;;;6.90;;
7971;SDS011;4031;49.758;6.120;2022-11-20T04:53:47;12.30;;;7.20;;
7971;SDS011;4031;49.758;6.120;2022-11-20T04:56:13;13.30;;;7.63;;
7971;SDS011;4031;49.758;6.120;2022-11-20T04:58:39;13.07;;;7.60;;
7971;SDS011;4031;49.758;6.120;2022-11-20T05:01:06;12.90;;;6.87;;
7971;SDS011;4031;49.758;6.120;2022-11-20T05:03:38;13.83;;;8.37;;
7971;SDS011;4031;49.758;6.120;2022-11-20T05:06:05;14.63;;;8.10;;
7971;SDS011;4031;49.758;6.120;2022-11-20T05:08:32;11.87;;;7.20;;
7971;SDS011;4031;49.758;6.120;2022-11-20T05:11:09;14.20;;;9.20;;
7971;SDS011;4031;49.758;6.120;2022-11-20T05:13:37;13.00;;;8.43;;
7971;SDS011;4031;49.758;6.120;2022-11-20T05:16:08;15.70;;;8.17;;
7971;SDS011;4031;49.758;6.120;2022-11-20T05:18:39;13.57;;;8.10;;
7971;SDS011;4031;49.758;6.120;2022-11-20T05:21:06;13.80;;;8.80;;
7971;SDS011;4031;49.758;6.120;2022-11-20T05:23:33;17.33;;;9.33;;
7971;SDS011;4031;49.758;6.120;2022-11-20T05:26:00;16.13;;;9.30;;
7971;SDS011;4031;49.758;6.120;2022-11-20T05:28:27;16.43;;;8.60;;
7971;SDS011;4031;49.758;6.120;2022-11-20T05:30:55;17.57;;;10.10;;
7971;SDS011;4031;49.758;6.120;2022-11-20T05:33:21;17.30;;;8.67;;
7971;SDS011;4031;49.758;6.120;2022-11-20T05:35:47;16.20;;;8.93;;
7971;SDS011;4031;49.758;6.120;2022-11-20T05:38:13;16.27;;;8.43;;
7971;SDS011;4031;49.758;6.120;2022-11-20T05:40:39;15.10;;;8.33;;
7971;SDS011;4031;49.758;6.120;2022-11-20T05:43:05;14.20;;;9.30;;
7971;SDS011;4031;49.758;6.120;2022-11-20T05:45:31;18.23;;;8.60;;
7971;SDS011;4031;49.758;6.120;2022-11-20T05:47:57;16.90;;;8.23;;
7971;SDS011;4031;49.758;6.120;2022-11-20T05:50:27;18.33;;;9.10;;
7971;SDS011;4031;49.758;6.120;2022-11-20T05:52:53;19.40;;;9.60;;
7971;SDS011;4031;49.758;6.120;2022-11-20T05:55:19;16.97;;;8.80;;
7971;SDS011;4031;49.758;6.120;2022-11-20T05:57:44;19.77;;;11.23;;
7971;SDS011;4031;49.758;6.120;2022-11-20T06:00:10;15.97;;;8.73;;
7971;SDS011;4031;49.758;6.120;2022-11-20T06:02:37;17.37;;;9.63;;
7971;SDS011;4031;49.758;6.120;2022-11-20T06:05:02;16.23;;;9.57;;
7971;SDS011;4031;49.758;6.120;2022-11-20T06:07:28;17.97;;;9.67;;
7971;SDS011;4031;49.758;6.120;2022-11-20T06:09:54;20.33;;;10.63;;
7971;SDS011;4031;49.758;6.120;2022-11-20T06:12:20;15.73;;;8.60;;
7971;SDS011;4031;49.758;6.120;2022-11-20T06:14:45;16.97;;;9.53;;
7971;SDS011;4031;49.758;6.120;2022-11-20T06:17:11;18.13;;;9.50;;
7971;SDS011;4031;49.758;6.120;2022-11-20T06:19:37;12.83;;;7.93;;
7971;SDS011;4031;49.758;6.120;2022-11-20T06:22:02;16.63;;;8.20;;
7971;SDS011;4031;49.758;6.120;2022-11-20T06:24:28;14.40;;;8.77;;
7971;SDS011;4031;49.758;6.120;2022-11-20T06:26:54;13.17;;;8.50;;
7971;SDS011;4031;49.758;6.120;2022-11-20T06:29:19;14.77;;;9.80;;
7971;SDS011;4031;49.758;6.120;2022-11-20T06:31:45;15.83;;;10.20;;
7971;SDS011;4031;49.758;6.120;2022-11-20T06:34:11;14.63;;;8.60;;
7971;SDS011;4031;49.758;6.120;2022-11-20T06:36:37;20.43;;;9.63;;
7971;SDS011;4031;49.758;6.120;2022-11-20T06:39:02;14.10;;;8.63;;
7971;SDS011;4031;49.758;6.120;2022-11-20T06:41:28;17.17;;;9.50;;
7971;SDS011;4031;49.758;6.120;2022-11-20T06:43:54;14.03;;;8.17;;
7971;SDS011;4031;49.758;6.120;2022-11-20T06:46:20;17.43;;;9.20;;
7971;SDS011;4031;49.758;6.120;2022-11-20T06:48:46;18.43;;;9.57;;
7971;SDS011;4031;49.758;6.120;2022-11-20T06:51:13;13.17;;;8.47;;
7971;SDS011;4031;49.758;6.120;2022-11-20T06:53:39;15.13;;;7.83;;
7971;SDS011;4031;49.758;6.120;2022-11-20T06:56:05;15.63;;;9.20;;
7971;SDS011;4031;49.758;6.120;2022-11-20T06:58:32;12.87;;;8.43;;
7971;SDS011;4031;49.758;6.120;2022-11-20T07:01:00;15.03;;;8.30;;
7971;SDS011;4031;49.758;6.120;2022-11-20T07:03:35;16.73;;;9.20;;
7971;SDS011;4031;49.758;6.120;2022-11-20T07:06:02;16.60;;;8.70;;
7971;SDS011;4031;49.758;6.120;2022-11-20T07:08:29;15.13;;;8.50;;
7971;SDS011;4031;49.758;6.120;2022-11-20T07:10:59;12.47;;;8.70;;
7971;SDS011;4031;49.758;6.120;2022-11-20T07:13:27;11.60;;;7.67;;
7971;SDS011;4031;49.758;6.120;2022-11-20T07:15:53;11.07;;;6.60;;
7971;SDS011;4031;49.758;6.120;2022-11-20T07:18:19;11.63;;;7.83;;
7971;SDS011;4031;49.758;6.120;2022-11-20T07:20:45;13.27;;;7.07;;
7971;SDS011;4031;49.758;6.120;2022-11-20T07:23:11;12.67;;;7.90;;
7971;SDS011;4031;49.758;6.120;2022-11-20T07:25:37;12.90;;;8.53;;
7971;SDS011;4031;49.758;6.120;2022-11-20T07:28:03;13.57;;;8.73;;
7971;SDS011;4031;49.758;6.120;2022-11-20T07:30:29;11.40;;;7.77;;
7971;SDS011;4031;49.758;6.120;2022-11-20T07:32:55;12.47;;;7.90;;
7971;SDS011;4031;49.758;6.120;2022-11-20T07:35:22;12.63;;;8.60;;
7971;SDS011;4031;49.758;6.120;2022-11-20T07:37:49;9.57;;;6.10;;
7971;SDS011;4031;49.758;6.120;2022-11-20T07:40:15;14.07;;;8.20;;
7971;SDS011;4031;49.758;6.120;2022-11-20T07:42:51;12.37;;;7.50;;
7971;SDS011;4031;49.758;6.120;2022-11-20T07:45:19;14.17;;;8.03;;
7971;SDS011;4031;49.758;6.120;2022-11-20T07:47:47;14.10;;;9.00;;
7971;SDS011;4031;49.758;6.120;2022-11-20T07:50:14;16.63;;;8.67;;
7971;SDS011;4031;49.758;6.120;2022-11-20T07:52:40;11.20;;;8.27;;
7971;SDS011;4031;49.758;6.120;2022-11-20T07:55:06;10.60;;;7.57;;
7971;SDS011;4031;49.758;6.120;2022-11-20T07:57:33;11.23;;;7.23;;
7971;SDS011;4031;49.758;6.120;2022-11-20T07:59:59;10.03;;;8.13;;
7971;SDS011;4031;49.758;6.120;2022-11-20T08:02:25;9.63;;;6.37;;
7971;SDS011;4031;49.758;6.120;2022-11-20T08:04:51;9.70;;;6.80;;
7971;SDS011;4031;49.758;6.120;2022-11-20T08:07:17;12.80;;;7.50;;
7971;SDS011;4031;49.758;6.120;2022-11-20T08:09:43;13.90;;;6.63;;
7971;SDS011;4031;49.758;6.120;2022-11-20T08:12:10;8.60;;;5.97;;
7971;SDS011;4031;49.758;6.120;2022-11-20T08:15:04;7.63;;;5.93;;
7971;SDS011;4031;49.758;6.120;2022-11-20T08:17:31;5.17;;;4.07;;
7971;SDS011;4031;49.758;6.120;2022-11-20T08:19:57;7.17;;;4.90;;
7971;SDS011;4031;49.758;6.120;2022-11-20T08:22:23;7.27;;;4.57;;
7971;SDS011;4031;49.758;6.120;2022-11-20T08:24:49;5.70;;;3.67;;
7971;SDS011;4031;49.758;6.120;2022-11-20T08:27:15;4.77;;;4.20;;
7971;SDS011;4031;49.758;6.120;2022-11-20T08:29:41;3.70;;;3.40;;
7971;SDS011;4031;49.758;6.120;2022-11-20T08:32:07;5.87;;;4.00;;
7971;SDS011;4031;49.758;6.120;2022-11-20T08:34:32;5.87;;;3.77;;
7971;SDS011;4031;49.758;6.120;2022-11-20T08:48:09;8.17;;;5.67;;
7971;SDS011;4031;49.758;6.120;2022-11-20T08:50:35;7.00;;;4.40;;
7971;SDS011;4031;49.758;6.120;2022-11-20T08:53:04;5.53;;;5.00;;
7971;SDS011;4031;49.758;6.120;2022-11-20T08:55:30;6.13;;;4.10;;
7971;SDS011;4031;49.758;6.120;2022-11-20T08:57:56;5.90;;;4.33;;
7971;SDS011;4031;49.758;6.120;2022-11-20T09:00:21;5.60;;;4.37;;
7971;SDS011;4031;49.758;6.120;2022-11-20T09:02:48;6.10;;;3.20;;
7971;SDS011;4031;49.758;6.120;2022-11-20T09:05:14;7.13;;;4.20;;
7971;SDS011;4031;49.758;6.120;2022-11-20T09:07:39;5.73;;;4.53;;
7971;SDS011;4031;49.758;6.120;2022-11-20T09:10:06;3.53;;;3.23;;
7971;SDS011;4031;49.758;6.120;2022-11-20T09:12:32;7.13;;;3.93;;
7971;SDS011;4031;49.758;6.120;2022-11-20T09:14:58;4.93;;;3.80;;
7971;SDS011;4031;49.758;6.120;2022-11-20T09:17:24;5.20;;;4.40;;
7971;SDS011;4031;49.758;6.120;2022-11-20T09:19:50;4.40;;;4.00;;
7971;SDS011;4031;49.758;6.120;2022-11-20T09:22:15;4.40;;;3.60;;
7971;SDS011;4031;49.758;6.120;2022-11-20T09:24:41;6.00;;;4.10;;
7971;SDS011;4031;49.758;6.120;2022-11-20T09:27:07;4.43;;;2.90;;
7971;SDS011;4031;49.758;6.120;2022-11-20T09:29:33;6.37;;;4.63;;
7971;SDS011;4031;49.758;6.120;2022-11-20T09:31:59;8.03;;;4.80;;
7971;SDS011;4031;49.758;6.120;2022-11-20T09:34:25;5.00;;;3.90;;
7971;SDS011;4031;49.758;6.120;2022-11-20T09:36:50;5.10;;;4.63;;
7971;SDS011;4031;49.758;6.120;2022-11-20T09:39:16;4.90;;;4.00;;
7971;SDS011;4031;49.758;6.120;2022-11-20T09:41:52;4.27;;;3.87;;
7971;SDS011;4031;49.758;6.120;2022-11-20T09:47:37;5.00;;;4.10;;
7971;SDS011;4031;49.758;6.120;2022-11-20T09:50:18;6.73;;;4.23;;
7971;SDS011;4031;49.758;6.120;2022-11-20T09:55:44;5.53;;;4.07;;
7971;SDS011;4031;49.758;6.120;2022-11-20T10:00:55;4.03;;;3.60;;
7971;SDS011;4031;49.758;6.120;2022-11-20T10:03:44;4.70;;;3.40;;
7971;SDS011;4031;49.758;6.120;2022-11-20T10:07:02;5.67;;;3.80;;
7971;SDS011;4031;49.758;6.120;2022-11-20T10:09:43;6.20;;;3.63;;
7971;SDS011;4031;49.758;6.120;2022-11-20T10:21:09;2.60;;;2.40;;
7971;SDS011;4031;49.758;6.120;2022-11-20T10:32:43;4.63;;;3.90;;
7971;SDS011;4031;49.758;6.120;2022-11-20T10:37:40;5.80;;;4.20;;
7971;SDS011;4031;49.758;6.120;2022-11-20T10:46:01;5.07;;;3.53;;
7971;SDS011;4031;49.758;6.120;2022-11-20T10:48:33;3.73;;;3.40;;
7971;SDS011;4031;49.758;6.120;2022-11-20T10:51:12;6.23;;;3.50;;
7971;SDS011;4031;49.758;6.120;2022-11-20T10:56:59;4.30;;;3.10;;
7971;SDS011;4031;49.758;6.120;2022-11-20T11:02:34;4.63;;;3.27;;
7971;SDS011;4031;49.758;6.120;2022-11-20T11:08:04;3.00;;;2.23;;
7971;SDS011;4031;49.758;6.120;2022-11-20T11:13:23;3.17;;;2.87;;
7971;SDS011;4031;49.758;6.120;2022-11-20T11:15:54;4.50;;;2.50;;
7971;SDS011;4031;49.758;6.120;2022-11-20T11:18:33;6.03;;;2.83;;
7971;SDS011;4031;49.758;6.120;2022-11-20T11:21:01;6.70;;;2.80;;
7971;SDS011;4031;49.758;6.120;2022-11-20T11:23:33;4.47;;;2.80;;
7971;SDS011;4031;49.758;6.120;2022-11-20T11:26:05;6.40;;;2.53;;
7971;SDS011;4031;49.758;6.120;2022-11-20T11:29:02;2.80;;;2.37;;
7971;SDS011;4031;49.758;6.120;2022-11-20T11:31:33;4.60;;;2.00;;
7971;SDS011;4031;49.758;6.120;2022-11-20T11:34:04;2.33;;;1.87;;
7971;SDS011;4031;49.758;6.120;2022-11-20T11:36:37;4.23;;;2.30;;
7971;SDS011;4031;49.758;6.120;2022-11-20T11:39:03;4.83;;;2.47;;
7971;SDS011;4031;49.758;6.120;2022-11-20T11:41:36;2.53;;;2.27;;
7971;SDS011;4031;49.758;6.120;2022-11-20T11:47:05;5.10;;;2.73;;
7971;SDS011;4031;49.758;6.120;2022-11-20T11:49:37;3.80;;;2.17;;
7971;SDS011;4031;49.758;6.120;2022-11-20T11:52:12;2.80;;;2.30;;
7971;SDS011;4031;49.758;6.120;2022-11-20T11:54:44;3.13;;;2.40;;
7971;SDS011;4031;49.758;6.120;2022-11-20T12:10:49;2.17;;;1.73;;
7971;SDS011;4031;49.758;6.120;2022-11-20T12:16:17;3.20;;;1.80;;
7971;SDS011;4031;49.758;6.120;2022-11-20T12:18:44;1.97;;;1.87;;
7971;SDS011;4031;49.758;6.120;2022-11-20T12:21:20;2.30;;;2.10;;
7971;SDS011;4031;49.758;6.120;2022-11-20T12:26:42;2.17;;;1.97;;
7971;SDS011;4031;49.758;6.120;2022-11-20T12:41:24;3.17;;;1.73;;
7971;SDS011;4031;49.758;6.120;2022-11-20T13:05:21;3.53;;;2.10;;
7971;SDS011;4031;49.758;6.120;2022-11-20T13:07:58;2.97;;;1.40;;
7971;SDS011;4031;49.758;6.120;2022-11-20T13:10:30;4.00;;;1.63;;
7971;SDS011;4031;49.758;6.120;2022-11-20T13:13:17;1.97;;;1.20;;
7971;SDS011;4031;49.758;6.120;2022-11-20T13:18:25;4.40;;;1.50;;
7971;SDS011;4031;49.758;6.120;2022-11-20T13:20:51;2.37;;;2.07;;
7971;SDS011;4031;49.758;6.120;2022-11-20T13:23:26;2.90;;;1.80;;
7971;SDS011;4031;49.758;6.120;2022-11-20T13:26:06;2.40;;;1.80;;
7971;SDS011;4031;49.758;6.120;2022-11-20T13:28:47;4.53;;;2.00;;
7971;SDS011;4031;49.758;6.120;2022-11-20T13:31:29;3.10;;;1.40;;
7971;SDS011;4031;49.758;6.120;2022-11-20T13:34:01;4.63;;;1.93;;
7971;SDS011;4031;49.758;6.120;2022-11-20T13:36:30;2.10;;;1.90;;
7971;SDS011;4031;49.758;6.120;2022-11-20T13:38:57;4.20;;;2.00;;
7971;SDS011;4031;49.758;6.120;2022-11-20T13:44:09;5.17;;;2.10;;
7971;SDS011;4031;49.758;6.120;2022-11-20T13:46:59;1.67;;;1.53;;
7971;SDS011;4031;49.758;6.120;2022-11-20T13:49:37;1.97;;;1.80;;
7971;SDS011;4031;49.758;6.120;2022-11-20T14:03:48;3.60;;;2.17;;
7971;SDS011;4031;49.758;6.120;2022-11-20T14:06:17;3.80;;;2.07;;
7971;SDS011;4031;49.758;6.120;2022-11-20T14:08:58;2.17;;;1.97;;
7971;SDS011;4031;49.758;6.120;2022-11-20T14:11:25;2.20;;;2.00;;
7971;SDS011;4031;49.758;6.120;2022-11-20T14:14:02;4.90;;;2.30;;
7971;SDS011;4031;49.758;6.120;2022-11-20T14:16:37;1.33;;;1.33;;
7971;SDS011;4031;49.758;6.120;2022-11-20T14:21:45;6.57;;;2.77;;
7971;SDS011;4031;49.758;6.120;2022-11-20T14:24:13;2.77;;;2.20;;
7971;SDS011;4031;49.758;6.120;2022-11-20T14:26:45;1.50;;;1.40;;
7971;SDS011;4031;49.758;6.120;2022-11-20T14:29:13;2.47;;;1.70;;
7971;SDS011;4031;49.758;6.120;2022-11-20T14:31:42;5.10;;;2.00;;
7971;SDS011;4031;49.758;6.120;2022-11-20T14:34:17;6.70;;;2.07;;
7971;SDS011;4031;49.758;6.120;2022-11-20T14:36:45;5.73;;;1.60;;
7971;SDS011;4031;49.758;6.120;2022-11-20T14:39:12;2.07;;;1.87;;
7971;SDS011;4031;49.758;6.120;2022-11-20T14:41:52;2.10;;;1.47;;
7971;SDS011;4031;49.758;6.120;2022-11-20T14:44:26;1.93;;;1.77;;
7971;SDS011;4031;49.758;6.120;2022-11-20T14:46:56;2.83;;;1.77;;
7971;SDS011;4031;49.758;6.120;2022-11-20T14:49:25;3.93;;;2.10;;
7971;SDS011;4031;49.758;6.120;2022-11-20T14:52:11;2.80;;;2.10;;
7971;SDS011;4031;49.758;6.120;2022-11-20T14:54:47;2.23;;;1.90;;
7971;SDS011;4031;49.758;6.120;2022-11-20T15:02:44;1.50;;;1.40;;
7971;SDS011;4031;49.758;6.120;2022-11-20T15:05:13;2.00;;;1.40;;
7971;SDS011;4031;49.758;6.120;2022-11-20T15:07:41;5.80;;;1.60;;
7971;SDS011;4031;49.758;6.120;2022-11-20T15:10:20;4.10;;;1.90;;
7971;SDS011;4031;49.758;6.120;2022-11-20T15:12:53;3.30;;;1.73;;
7971;SDS011;4031;49.758;6.120;2022-11-20T15:18:17;4.07;;;1.93;;
7971;SDS011;4031;49.758;6.120;2022-11-20T15:20:48;1.60;;;1.40;;
7971;SDS011;4031;49.758;6.120;2022-11-20T15:23:16;2.20;;;2.00;;
7971;SDS011;4031;49.758;6.120;2022-11-20T15:25:43;2.83;;;2.00;;
7971;SDS011;4031;49.758;6.120;2022-11-20T15:28:13;2.60;;;1.57;;
7971;SDS011;4031;49.758;6.120;2022-11-20T15:30:58;3.13;;;1.67;;
7971;SDS011;4031;49.758;6.120;2022-11-20T15:33:25;1.40;;;1.30;;
7971;SDS011;4031;49.758;6.120;2022-11-20T15:35:51;2.20;;;1.07;;
7971;SDS011;4031;49.758;6.120;2022-11-20T15:38:17;1.53;;;1.43;;
7971;SDS011;4031;49.758;6.120;2022-11-20T15:40:42;3.60;;;1.20;;
7971;SDS011;4031;49.758;6.120;2022-11-20T15:43:08;3.70;;;1.23;;
7971;SDS011;4031;49.758;6.120;2022-11-20T15:48:29;1.93;;;0.97;;
7971;SDS011;4031;49.758;6.120;2022-11-20T15:53:35;1.40;;;1.20;;
7971;SDS011;4031;49.758;6.120;2022-11-20T15:56:06;1.30;;;1.10;;
7971;SDS011;4031;49.758;6.120;2022-11-20T15:58:38;2.10;;;0.90;;
7971;SDS011;4031;49.758;6.120;2022-11-20T16:01:04;3.33;;;1.43;;
7971;SDS011;4031;49.758;6.120;2022-11-20T16:03:30;3.90;;;1.20;;
7971;SDS011;4031;49.758;6.120;2022-11-20T16:05:55;3.57;;;1.30;;
7971;SDS011;4031;49.758;6.120;2022-11-20T16:08:21;2.20;;;0.80;;
7971;SDS011;4031;49.758;6.120;2022-11-20T16:10:47;1.17;;;1.17;;
7971;SDS011;4031;49.758;6.120;2022-11-20T16:13:13;2.30;;;1.30;;
7971;SDS011;4031;49.758;6.120;2022-11-20T16:16:02;3.97;;;1.23;;
7971;SDS011;4031;49.758;6.120;2022-11-20T16:18:33;1.40;;;1.17;;
7971;SDS011;4031;49.758;6.120;2022-11-20T16:20:58;2.57;;;1.30;;
7971;SDS011;4031;49.758;6.120;2022-11-20T16:23:24;1.67;;;1.10;;
7971;SDS011;4031;49.758;6.120;2022-11-20T16:25:51;2.20;;;1.10;;
7971;SDS011;4031;49.758;6.120;2022-11-20T16:28:17;0.80;;;0.80;;
7971;SDS011;4031;49.758;6.120;2022-11-20T16:30:43;1.20;;;0.97;;
7971;SDS011;4031;49.758;6.120;2022-11-20T16:33:13;1.97;;;1.10;;
7971;SDS011;4031;49.758;6.120;2022-11-20T16:35:42;1.43;;;1.30;;
7971;SDS011;4031;49.758;6.120;2022-11-20T16:38:08;1.77;;;1.00;;
7971;SDS011;4031;49.758;6.120;2022-11-20T16:40:34;2.20;;;0.93;;
7971;SDS011;4031;49.758;6.120;2022-11-20T16:43:07;1.20;;;1.20;;
7971;SDS011;4031;49.758;6.120;2022-11-20T16:45:42;2.50;;;1.53;;
7971;SDS011;4031;49.758;6.120;2022-11-20T16:48:13;1.43;;;0.93;;
7971;SDS011;4031;49.758;6.120;2022-11-20T16:50:44;0.80;;;0.80;;
7971;SDS011;4031;49.758;6.120;2022-11-20T16:53:15;1.43;;;1.20;;
7971;SDS011;4031;49.758;6.120;2022-11-20T16:55:42;1.93;;;1.10;;
7971;SDS011;4031;49.758;6.120;2022-11-20T16:58:07;1.67;;;1.10;;
7971;SDS011;4031;49.758;6.120;2022-11-20T17:00:37;1.17;;;0.83;;
7971;SDS011;4031;49.758;6.120;2022-11-20T17:03:06;1.43;;;1.00;;
7971;SDS011;4031;49.758;6.120;2022-11-20T17:05:32;2.70;;;0.73;;
7971;SDS011;4031;49.758;6.120;2022-11-20T17:07:59;1.27;;;0.90;;
7971;SDS011;4031;49.758;6.120;2022-11-20T17:10:26;1.27;;;0.70;;
7971;SDS011;4031;49.758;6.120;2022-11-20T17:12:52;4.87;;;0.97;;
7971;SDS011;4031;49.758;6.120;2022-11-20T17:15:17;1.97;;;0.77;;
7971;SDS011;4031;49.758;6.120;2022-11-20T17:17:43;1.17;;;1.07;;
7971;SDS011;4031;49.758;6.120;2022-11-20T17:20:09;1.50;;;1.40;;
7971;SDS011;4031;49.758;6.120;2022-11-20T17:22:36;0.93;;;0.93;;
7971;SDS011;4031;49.758;6.120;2022-11-20T17:25:02;0.97;;;0.97;;
7971;SDS011;4031;49.758;6.120;2022-11-20T17:27:28;0.70;;;0.70;;
7971;SDS011;4031;49.758;6.120;2022-11-20T17:29:54;0.80;;;0.80;;
7971;SDS011;4031;49.758;6.120;2022-11-20T17:32:21;0.50;;;0.50;;
7971;SDS011;4031;49.758;6.120;2022-11-20T17:34:47;0.90;;;0.60;;
7971;SDS011;4031;49.758;6.120;2022-11-20T17:37:13;0.97;;;0.87;;
7971;SDS011;4031;49.758;6.120;2022-11-20T17:39:38;0.80;;;0.80;;
7971;SDS011;4031;49.758;6.120;2022-11-20T17:42:04;1.17;;;0.90;;
7971;SDS011;4031;49.758;6.120;2022-11-20T17:44:48;1.03;;;1.00;;
7971;SDS011;4031;49.758;6.120;2022-11-20T17:47:14;2.30;;;0.70;;
7971;SDS011;4031;49.758;6.120;2022-11-20T17:49:40;0.67;;;0.67;;
7971;SDS011;4031;49.758;6.120;2022-11-20T17:52:06;1.10;;;1.00;;
7971;SDS011;4031;49.758;6.120;2022-11-20T17:54:31;1.50;;;0.93;;
7971;SDS011;4031;49.758;6.120;2022-11-20T17:56:57;2.70;;;1.37;;
7971;SDS011;4031;49.758;6.120;2022-11-20T17:59:42;1.73;;;1.20;;
7971;SDS011;4031;49.758;6.120;2022-11-20T18:02:08;1.07;;;0.97;;
7971;SDS011;4031;49.758;6.120;2022-11-20T18:04:37;3.97;;;1.37;;
7971;SDS011;4031;49.758;6.120;2022-11-20T18:07:03;1.60;;;0.90;;